createdAt,value
2022-12-04T00:09:55.906Z,-0.3
2022-12-04T00:19:57.599Z,-0.3
2022-12-04T00:29:59.594Z,-0.3
2022-12-04T00:40:02.031Z,-0.3
2022-12-04T00:50:04.354Z,-0.3
2022-12-04T01:00:06.904Z,-0.3
2022-12-04T01:10:08.935Z,-0.3
2022-12-04T01:20:11.233Z,-0.3
2022-12-04T01:30:13.317Z,-0.3
2022-12-04T01:40:15.602Z,-0.3
2022-12-04T01:50:18.115Z,-0.3
2022-12-04T02:00:19.989Z,-0.3
2022-12-04T02:10:22.397Z,-0.3
2022-12-04T02:20:24.653Z,-0.3
2022-12-04T02:40:29.054Z,-0.3
2022-12-04T02:50:31.097Z,-0.3
2022-12-04T03:00:33.580Z,-0.3
2022-12-04T03:10:35.438Z,-0.3
2022-12-04T03:20:37.621Z,-0.2
2022-12-04T03:30:40.209Z,-0.2
2022-12-04T03:40:42.708Z,-0.2
2022-12-04T03:50:44.554Z,-0.2
2022-12-04T04:00:47.078Z,-0.2
2022-12-04T04:10:48.926Z,-0.2
2022-12-04T04:20:50.655Z,-0.1
2022-12-04T04:30:52.426Z,-0.1
2022-12-04T04:50:56.585Z,-0.1
2022-12-04T05:00:58.723Z,-0.1
2022-12-04T05:11:00.444Z,-0.1
2022-12-04T05:21:02.987Z,-0.1
2022-12-04T05:31:05.696Z,-0.2
2022-12-04T05:41:07.400Z,-0.2
2022-12-04T05:51:09.956Z,-0.2
2022-12-04T06:01:12.609Z,-0.2
2022-12-04T06:11:15.266Z,-0.2
2022-12-04T06:21:17.654Z,-0.1
2022-12-04T06:31:20.034Z,-0.1
2022-12-04T06:41:22.160Z,0
2022-12-04T06:51:24.137Z,0
2022-12-04T06:52:51.533Z,0
2022-12-04T07:01:34.931Z,0
2022-12-04T07:11:36.552Z,0
2022-12-04T07:21:38.527Z,0.1
2022-12-04T07:31:40.949Z,0.1
2022-12-04T07:41:43.326Z,0.2
2022-12-04T07:51:45.283Z,0.2
2022-12-04T08:01:47.227Z,0.2
2022-12-04T08:11:48.950Z,0.3
2022-12-04T08:21:51.003Z,0.3
2022-12-04T08:31:53.131Z,0.4
2022-12-04T08:51:56.635Z,0.5
2022-12-04T09:01:59.215Z,0.5
2022-12-04T09:12:01.083Z,0.6
2022-12-04T09:22:03.296Z,0.6
2022-12-04T09:32:05.046Z,0.7
2022-12-04T09:42:07.251Z,0.8
2022-12-04T09:52:09.172Z,0.9
2022-12-04T10:02:11.247Z,0.9
2022-12-04T10:12:12.928Z,0.8
2022-12-04T10:22:15.167Z,0.8
2022-12-04T10:32:17.804Z,0.8
2022-12-04T10:42:20.600Z,0.9
2022-12-04T10:52:22.853Z,0.9
2022-12-04T11:02:24.682Z,0.9
2022-12-04T11:12:26.535Z,1
2022-12-04T11:22:28.626Z,1
2022-12-04T11:32:30.410Z,1
2022-12-04T11:42:32.730Z,1.2
2022-12-04T11:52:34.526Z,1.2
2022-12-04T12:02:36.811Z,1.3
2022-12-04T12:12:38.485Z,1.3
2022-12-04T12:22:40.295Z,1.3
2022-12-04T12:32:42.079Z,1.3
2022-12-04T12:42:44.509Z,1.4
2022-12-04T12:52:46.471Z,1.4
2022-12-04T13:02:48.228Z,1.4
2022-12-04T13:12:49.863Z,1.4
2022-12-04T13:22:52.230Z,1.5
2022-12-04T13:32:54.840Z,1.5
2022-12-04T13:42:57.239Z,1.5
2022-12-04T13:52:59.503Z,1.5
2022-12-04T14:03:01.351Z,1.5
2022-12-04T14:13:03.457Z,1.5
2022-12-04T14:23:05.268Z,1.4
2022-12-04T14:33:07.788Z,1.4
2022-12-04T14:43:09.932Z,1.4
2022-12-04T14:53:11.672Z,1.3
2022-12-04T15:13:21.338Z,1.3
2022-12-04T15:23:18.783Z,1.3
2022-12-04T15:33:21.623Z,1.3
2022-12-04T15:43:22.841Z,1.3
2022-12-04T15:53:25.419Z,1.3
2022-12-04T16:03:27.852Z,1.2
2022-12-04T16:13:29.560Z,1.2
2022-12-04T16:23:32.041Z,1.2
2022-12-04T16:33:34.563Z,1.2
2022-12-04T16:43:36.966Z,1
2022-12-04T16:53:39.025Z,0.9
2022-12-04T17:03:40.981Z,0.8
2022-12-04T17:13:43.018Z,0.7
2022-12-04T17:23:45.210Z,0.7
2022-12-04T17:33:46.991Z,0.7
2022-12-04T17:43:49.523Z,0.7
2022-12-04T17:53:51.810Z,0.7
2022-12-04T18:03:54.305Z,0.7
2022-12-04T18:13:56.496Z,0.7
2022-12-04T18:23:59.098Z,0.6
2022-12-04T18:34:01.192Z,0.6
2022-12-04T18:44:03.459Z,0.6
2022-12-04T18:54:05.573Z,0.6
2022-12-04T19:04:07.917Z,0.7
2022-12-04T19:14:14.994Z,0.7
2022-12-04T19:24:12.582Z,0.7
2022-12-04T19:34:14.898Z,0.8
2022-12-04T19:44:47.179Z,0.8
2022-12-04T19:54:19.854Z,0.8
2022-12-04T20:34:29.351Z,1
2022-12-04T21:04:35.997Z,0.9
2022-12-04T21:24:40.407Z,1
2022-12-04T21:54:46.342Z,1.1
2022-12-04T22:44:57.043Z,1.2
2022-12-04T23:05:01.176Z,1.3
2022-12-04T23:15:03.236Z,1.3
2022-12-04T23:25:05.687Z,1.3
2022-12-04T23:35:07.869Z,1.4
2022-12-04T23:55:12.743Z,1.3
